Time;durP1;ratioP1;P1;durP2;ratioP2;P2;SDS_P1;SDS_P2;PMS_P1;PMS_P2;Temp;Humidity;BMP_temperature;BMP_pressure;BME280_temperature;BME280_humidity;BME280_pressure;Samples;Min_cycle;Max_cycle;Signal;HPM_P1;HPM_P2
2022/04/10 00:01:30;;;;;;;7.40;6.80;;;2.70;99.90;;;1.30;93.76;97984.31;5042058;28;20482;-73
2022/04/10 00:03:57;;;;;;;8.17;7.23;;;2.70;99.90;;;1.34;93.68;97979.47;5045247;28;20472;-73
2022/04/10 00:06:25;;;;;;;8.07;7.10;;;2.80;99.90;;;1.45;93.03;97992.53;5036910;28;20516;-75
2022/04/10 00:08:53;;;;;;;6.97;6.13;;;2.90;99.90;;;1.45;93.48;97991.72;5052706;28;20559;-74
2022/04/10 00:11:20;;;;;;;6.77;6.17;;;2.90;99.90;;;1.60;93.15;97987.47;5043073;28;20460;-72
2022/04/10 00:13:47;;;;;;;8.43;7.60;;;3.00;99.90;;;1.51;91.89;97983.91;5043054;28;20499;-73
2022/04/10 00:16:14;;;;;;;7.80;6.93;;;3.00;98.20;;;1.16;90.83;97929.00;5038629;28;20544;-74
2022/04/10 00:18:42;;;;;;;7.20;6.50;;;3.00;96.30;;;1.55;91.25;97982.63;5052396;28;20488;-73
2022/04/10 00:21:09;;;;;;;6.47;5.97;;;3.00;97.00;;;1.61;90.68;97983.81;5037988;28;20461;-73
2022/04/10 00:23:36;;;;;;;6.50;5.90;;;3.10;96.30;;;1.70;89.78;97977.50;5040392;28;20474;-75
2022/04/10 00:26:04;;;;;;;7.53;6.60;;;3.20;94.90;;;1.58;90.65;97980.63;5039815;28;20570;-72
2022/04/10 00:28:32;;;;;;;8.23;6.87;;;3.10;95.40;;;1.23;90.64;97927.34;5061755;28;20551;-73
2022/04/10 00:30:59;;;;;;;7.73;5.40;;;3.10;95.80;;;1.52;90.68;97982.94;5045748;28;20540;-73
2022/04/10 00:33:26;;;;;;;9.43;5.90;;;3.00;96.30;;;1.70;90.56;97977.50;5039887;28;20554;-74
2022/04/10 00:35:53;;;;;;;6.53;5.57;;;3.10;96.40;;;1.66;90.08;97976.16;5051140;28;20681;-75
2022/04/10 00:38:20;;;;;;;6.20;5.67;;;3.10;94.90;;;1.65;89.26;97981.66;5045526;28;20467;-75
2022/04/10 00:40:48;;;;;;;6.60;6.00;;;3.10;94.30;;;1.57;89.69;97976.28;5045323;28;20543;-75
2022/04/10 00:43:16;;;;;;;5.73;5.23;;;3.10;93.90;;;1.57;89.57;97979.78;5037732;28;20473;-73
2022/04/10 00:45:44;;;;;;;6.30;5.77;;;3.00;94.50;;;1.33;90.51;97984.00;5043002;28;20824;-73
2022/04/10 00:48:11;;;;;;;6.77;5.57;;;2.80;94.30;;;1.39;90.39;97982.53;5041264;28;20461;-74
2022/04/10 00:51:40;;;;;;;6.60;5.63;;;2.80;96.30;;;1.12;90.78;97982.50;5046463;28;20456;-73
2022/04/10 00:53:27;;;;;;;7.40;6.30;;;2.70;95.20;;;1.06;90.59;97975.16;5040836;28;20475;-73
2022/04/10 00:55:54;;;;;;;5.80;5.30;;;2.60;95.70;;;1.11;90.95;97975.50;5042112;28;20453;-72
2022/04/10 00:58:23;;;;;;;5.87;5.37;;;2.50;97.50;;;0.87;91.50;97967.38;5037084;28;21017;-72
2022/04/10 01:00:51;;;;;;;9.70;5.67;;;2.40;96.80;;;1.04;91.08;97969.16;5040621;28;20611;-73
2022/04/10 01:03:18;;;;;;;5.23;4.77;;;2.40;98.40;;;0.98;90.79;97964.44;5038878;28;20873;-72
2022/04/10 01:05:47;;;;;;;7.57;6.70;;;2.50;96.30;;;0.89;91.37;97960.06;5040692;28;20546;-73
2022/04/10 01:08:15;;;;;;;8.03;5.50;;;2.40;96.30;;;0.94;91.16;97963.09;5040364;28;21024;-72
2022/04/10 01:10:43;;;;;;;5.67;5.00;;;2.50;96.90;;;1.01;90.40;97972.13;5044367;28;20546;-73
2022/04/10 01:13:11;;;;;;;6.03;5.53;;;2.50;95.10;;;0.97;90.39;97976.94;5039819;28;20493;-73
2022/04/10 01:15:40;;;;;;;6.13;5.43;;;2.50;95.50;;;0.91;90.11;97979.38;5038369;28;20482;-74
2022/04/10 01:18:09;;;;;;;7.60;5.37;;;2.50;94.60;;;0.86;90.57;97982.47;5038055;28;21165;-72
2022/04/10 01:20:36;;;;;;;6.70;5.67;;;2.40;95.20;;;0.93;90.66;97974.72;5046691;28;20601;-73
2022/04/10 01:23:05;;;;;;;7.37;5.63;;;2.50;96.10;;;1.13;89.75;97975.38;5044968;28;20453;-74
2022/04/10 01:25:32;;;;;;;6.13;5.47;;;2.60;94.50;;;1.24;89.27;97976.94;5042552;28;21008;-74
2022/04/10 01:28:01;;;;;;;8.27;5.30;;;2.70;93.70;;;1.17;89.18;97967.91;5037561;28;20536;-73
2022/04/10 01:30:28;;;;;;;5.73;5.10;;;2.80;93.60;;;1.17;88.49;97975.91;5049055;28;20534;-74
2022/04/10 01:32:57;;;;;;;7.53;4.87;;;2.70;92.70;;;1.20;88.67;97980.91;5043013;28;20476;-74
2022/04/10 01:35:26;;;;;;;6.97;4.77;;;2.70;92.60;;;1.15;87.95;97981.38;5057936;28;20461;-74
2022/04/10 01:37:54;;;;;;;6.73;5.00;;;2.70;92.30;;;0.76;88.67;97932.03;5042272;28;20461;-73
2022/04/10 01:40:23;;;;;;;5.80;5.17;;;2.60;92.80;;;1.02;88.36;97971.16;5041865;28;20470;-74
2022/04/10 01:42:50;;;;;;;6.37;4.83;;;2.60;92.50;;;1.17;87.99;97983.88;5042458;28;20457;-72
2022/04/10 01:45:17;;;;;;;5.50;4.63;;;2.60;92.30;;;1.10;88.50;97983.66;5036775;28;20520;-73
2022/04/10 01:47:44;;;;;;;5.00;4.50;;;2.60;92.50;;;1.02;87.98;97981.78;5061618;28;20544;-74
2022/04/10 01:50:12;;;;;;;4.57;4.27;;;2.60;92.00;;;0.95;89.03;97988.69;5057823;28;20462;-73
2022/04/10 01:52:39;;;;;;;6.20;4.10;;;2.50;92.70;;;0.87;88.29;97986.81;5046534;28;20551;-71
2022/04/10 01:55:08;;;;;;;7.40;4.60;;;2.50;92.20;;;0.52;88.77;97953.94;5036769;28;20554;-73
2022/04/10 01:57:36;;;;;;;5.13;4.63;;;2.30;92.50;;;0.47;88.93;97957.06;5042930;28;20460;-73
2022/04/10 02:00:06;;;;;;;4.63;4.17;;;2.30;92.60;;;0.69;89.43;97998.31;5038078;28;20468;-72
2022/04/10 02:02:33;;;;;;;5.50;4.50;;;2.20;93.20;;;0.61;89.61;97994.75;5045056;28;20830;-72
2022/04/10 02:05:01;;;;;;;5.00;4.60;;;2.10;94.00;;;0.49;89.78;97997.63;5036630;28;20505;-72
2022/04/10 02:07:28;;;;;;;7.40;4.60;;;2.00;94.90;;;0.46;90.26;97992.63;5039890;28;20472;-73
2022/04/10 02:09:55;;;;;;;6.00;5.00;;;2.00;95.50;;;0.51;89.66;98006.28;5040995;28;20482;-72
2022/04/10 02:12:22;;;;;;;6.10;4.80;;;2.00;95.00;;;0.18;90.29;97967.94;5022458;28;20554;-72
2022/04/10 02:14:50;;;;;;;8.43;5.43;;;2.00;95.60;;;0.45;90.71;98001.59;5055863;28;21025;-74
2022/04/10 02:17:17;;;;;;;5.70;4.80;;;1.90;96.70;;;0.36;91.03;97999.81;5043579;28;20866;-72
2022/04/10 02:19:44;;;;;;;4.50;4.10;;;1.90;96.50;;;0.29;90.96;98007.56;5041704;28;20453;-73
2022/04/10 02:22:11;;;;;;;6.00;5.27;;;1.80;96.10;;;0.22;91.00;97999.34;5037030;28;20519;-73
2022/04/10 02:24:38;;;;;;;5.07;4.43;;;1.80;95.60;;;0.17;91.47;98004.28;5042575;28;21115;-72
2022/04/10 02:27:05;;;;;;;6.50;4.67;;;1.70;96.10;;;0.34;91.29;97999.13;5041536;28;20460;-73
2022/04/10 02:29:32;;;;;;;5.17;4.60;;;1.80;97.10;;;0.21;90.99;97997.66;5051248;28;20873;-72
2022/04/10 02:32:01;;;;;;;6.73;4.87;;;1.70;95.80;;;0.16;91.23;97997.28;5042911;28;20955;-72
2022/04/10 02:34:28;;;;;;;6.00;5.33;;;1.70;96.80;;;0.22;90.79;97999.34;5037576;28;20552;-72
2022/04/10 02:36:54;;;;;;;6.03;5.33;;;1.80;96.10;;;0.21;90.74;97995.00;5043759;28;20985;-73
2022/04/10 02:39:21;;;;;;;8.20;5.40;;;1.80;95.80;;;0.16;90.82;97991.16;5036870;28;20460;-71
2022/04/10 02:41:49;;;;;;;11.03;5.10;;;1.70;95.30;;;0.09;90.57;97974.97;5047915;28;20867;-70
2022/04/10 02:44:15;;;;;;;5.97;5.10;;;1.70;95.50;;;0.08;90.84;97999.88;5045327;28;20845;-72
2022/04/10 02:46:42;;;;;;;8.87;5.00;;;1.70;95.60;;;0.06;91.42;97996.50;5043433;28;20841;-72
2022/04/10 02:49:11;;;;;;;8.23;5.10;;;1.60;96.10;;;0.06;91.03;97997.34;5043136;28;20454;-72
2022/04/10 02:51:38;;;;;;;6.10;5.17;;;1.60;97.00;;;-0.01;91.47;98007.75;5042236;28;20552;-74
2022/04/10 02:54:05;;;;;;;8.20;5.50;;;1.50;96.90;;;0.11;91.53;98010.19;5040296;28;20466;-71
2022/04/10 02:56:32;;;;;;;7.00;5.17;;;1.50;98.70;;;0.19;91.09;98009.47;5042706;28;21187;-72
2022/04/10 02:58:59;;;;;;;6.07;5.47;;;1.70;97.70;;;0.12;91.01;98006.56;5043161;28;20534;-73
2022/04/10 03:01:26;;;;;;;7.87;5.73;;;1.70;96.50;;;0.20;91.21;98011.94;5041490;28;20461;-73
2022/04/10 03:03:53;;;;;;;5.83;4.60;;;1.70;96.50;;;0.24;91.05;98005.38;5042941;28;21018;-73
2022/04/10 03:06:22;;;;;;;6.73;4.97;;;1.80;96.40;;;0.28;90.64;98011.19;5031440;28;21505;-73
2022/04/10 03:08:49;;;;;;;5.80;5.10;;;1.80;95.80;;;0.39;90.30;98003.03;5045730;28;20850;-73
2022/04/10 03:11:16;;;;;;;8.53;5.90;;;1.90;95.20;;;0.37;90.42;98009.47;5039184;28;20448;-72
2022/04/10 03:13:43;;;;;;;5.50;5.00;;;1.90;94.70;;;0.31;90.09;98015.38;5039768;28;20471;-71
2022/04/10 03:16:10;;;;;;;7.03;5.40;;;1.90;94.50;;;0.08;90.38;97981.28;5041041;28;20472;-74
2022/04/10 03:18:37;;;;;;;5.37;4.87;;;1.80;94.90;;;0.20;90.75;98017.25;5040205;28;21286;-73
2022/04/10 03:21:04;;;;;;;5.63;5.00;;;1.70;95.70;;;0.04;90.98;98015.28;5035261;28;20550;-72
2022/04/10 03:23:33;;;;;;;7.40;5.43;;;1.60;95.20;;;-0.09;91.69;98015.59;5055496;28;20493;-72
2022/04/10 03:26:00;;;;;;;5.70;4.97;;;1.50;96.40;;;-0.06;91.80;98023.28;5044856;28;20502;-72
2022/04/10 03:28:27;;;;;;;8.77;5.77;;;1.50;97.40;;;-0.20;92.25;98021.13;5034677;28;20457;-71
2022/04/10 03:30:54;;;;;;;6.30;5.50;;;1.50;96.60;;;-0.23;92.39;98016.09;5039947;28;20491;-72
2022/04/10 03:33:21;;;;;;;9.23;6.53;;;1.40;97.60;;;-0.30;92.72;98027.31;5035469;28;20553;-71
2022/04/10 03:35:48;;;;;;;8.50;5.53;;;1.30;97.90;;;-0.40;93.58;98037.13;5043841;28;20492;-73
2022/04/10 03:38:15;;;;;;;7.97;5.70;;;1.20;99.50;;;-0.51;93.71;98022.19;5041995;28;20457;-73
2022/04/10 03:40:43;;;;;;;8.77;6.43;;;1.20;99.90;;;-0.59;93.78;98036.19;5042383;28;20647;-74
2022/04/10 03:43:11;;;;;;;6.70;6.00;;;1.10;99.90;;;-0.52;94.02;98038.28;5047585;28;20485;-72
2022/04/10 03:45:39;;;;;;;10.63;7.10;;;1.10;99.90;;;-0.45;93.87;98034.91;5037372;28;20475;-73
2022/04/10 03:48:07;;;;;;;8.77;5.87;;;1.10;99.90;;;-0.34;93.16;98033.91;5038302;28;20549;-72
2022/04/10 03:50:34;;;;;;;8.50;6.23;;;1.10;99.90;;;-0.44;92.95;98033.94;5040810;28;20483;-72
2022/04/10 03:53:02;;;;;;;8.47;6.77;;;1.10;99.90;;;-0.55;93.73;98035.91;5046543;28;20481;-73
2022/04/10 03:55:29;;;;;;;6.33;5.70;;;1.10;99.90;;;-0.67;93.70;98037.91;5041085;28;20464;-71
2022/04/10 03:57:57;;;;;;;10.60;7.13;;;1.00;99.90;;;-0.64;94.06;98043.75;5048038;28;20459;-71
2022/04/10 04:00:26;;;;;;;10.37;6.83;;;1.00;99.90;;;-0.63;94.49;98049.88;5040131;28;20543;-73
2022/04/10 04:02:53;;;;;;;7.00;6.30;;;0.90;99.90;;;-0.67;94.26;98040.56;5042836;28;20549;-72
2022/04/10 04:05:20;;;;;;;7.17;6.07;;;0.90;99.90;;;-0.65;93.76;98049.19;5042058;28;20485;-72
2022/04/10 04:07:47;;;;;;;9.83;6.77;;;0.90;99.90;;;-0.75;94.37;98052.72;5042202;28;20453;-72
2022/04/10 04:10:14;;;;;;;10.20;6.40;;;0.80;99.90;;;-0.95;94.12;98014.78;5043055;28;20468;-73
2022/04/10 04:12:41;;;;;;;8.23;6.60;;;0.80;99.90;;;-0.76;94.51;98047.56;5042949;28;20545;-72
2022/04/10 04:15:11;;;;;;;7.13;6.20;;;0.90;99.90;;;-1.05;93.77;98003.34;5042107;28;20533;-72
2022/04/10 04:17:38;;;;;;;10.97;7.00;;;0.80;99.90;;;-0.90;94.00;98051.50;5044257;28;20454;-72
2022/04/10 04:20:07;;;;;;;11.90;7.47;;;0.80;99.90;;;-0.84;94.58;98069.50;5039396;28;20500;-72
2022/04/10 04:22:36;;;;;;;9.10;6.83;;;0.80;99.90;;;-0.83;94.93;98075.63;5039254;28;20498;-72
2022/04/10 04:25:05;;;;;;;7.77;6.30;;;0.70;99.90;;;-0.91;95.25;98085.13;5042305;28;20469;-72
2022/04/10 04:27:32;;;;;;;8.30;7.33;;;0.70;99.90;;;-0.89;94.91;98077.03;5045521;28;20464;-71
2022/04/10 04:30:00;;;;;;;10.40;7.40;;;0.70;99.90;;;-0.84;94.80;98085.41;5042328;28;20457;-72
2022/04/10 04:32:29;;;;;;;8.47;6.67;;;0.70;99.90;;;-0.90;94.98;98102.72;5043465;28;20454;-74
2022/04/10 04:34:56;;;;;;;9.47;6.70;;;0.60;99.90;;;-0.96;94.60;98092.69;5052519;28;20454;-73
2022/04/10 04:37:23;;;;;;;9.20;7.03;;;0.60;99.90;;;-0.91;94.52;98108.16;5039071;28;20457;-73
2022/04/10 04:39:50;;;;;;;8.63;6.10;;;0.60;99.90;;;-0.96;94.67;98111.25;5035968;28;20548;-74
2022/04/10 04:42:17;;;;;;;11.97;9.20;;;0.60;99.90;;;-0.81;94.27;98100.22;5035608;28;20472;-74
2022/04/10 04:44:44;;;;;;;10.57;6.77;;;0.70;99.90;;;-1.06;94.51;98091.84;5039021;28;20479;-73
2022/04/10 04:47:11;;;;;;;8.80;6.50;;;0.70;99.90;;;-0.90;94.67;98113.34;5038131;28;20841;-73
2022/04/10 04:49:39;;;;;;;7.73;6.33;;;0.70;99.90;;;-0.87;93.83;98118.34;5035749;28;20468;-74
2022/04/10 04:52:07;;;;;;;10.57;7.00;;;0.70;99.90;;;-0.64;92.93;98118.06;5040322;28;20456;-73
2022/04/10 04:54:34;;;;;;;8.17;7.07;;;0.90;99.90;;;-0.68;92.83;98116.69;5037290;28;20559;-75
2022/04/10 04:57:01;;;;;;;11.93;6.50;;;0.90;99.50;;;-0.54;92.13;98111.91;5039856;28;21052;-74
2022/04/10 04:59:28;;;;;;;8.57;7.00;;;1.10;98.70;;;-0.20;90.33;98125.53;5038705;28;20548;-74
2022/04/10 05:01:56;;;;;;;8.17;6.00;;;1.40;96.20;;;0.12;88.41;98128.78;5036104;28;20512;-74
2022/04/10 05:04:22;;;;;;;8.40;6.17;;;1.70;92.10;;;0.38;86.32;98122.78;5036500;28;20502;-72
2022/04/10 05:06:51;;;;;;;8.20;5.97;;;2.00;89.60;;;0.57;84.45;98132.47;5041663;28;20461;-74
2022/04/10 05:09:18;;;;;;;7.00;5.67;;;2.20;86.60;;;0.82;83.12;98136.25;5039764;28;20460;-74
2022/04/10 05:11:45;;;;;;;7.97;6.10;;;2.40;84.10;;;1.16;82.40;98141.91;5042123;28;20546;-74
2022/04/10 05:14:12;;;;;;;10.80;5.10;;;2.70;83.50;;;1.34;80.04;98140.06;5035559;28;20461;-74
2022/04/10 05:16:39;;;;;;;9.37;5.87;;;3.00;80.00;;;1.52;79.43;98137.41;5036849;28;20559;-74
2022/04/10 05:19:06;;;;;;;7.60;5.67;;;3.20;79.30;;;1.88;78.01;98147.13;5037370;28;20969;-75
2022/04/10 05:21:33;;;;;;;7.00;5.03;;;3.50;78.30;;;2.16;76.30;98143.47;5042315;28;20507;-73
2022/04/10 05:24:01;;;;;;;7.20;4.63;;;3.90;76.30;;;2.32;74.89;98145.38;5041672;28;20532;-74
2022/04/10 05:26:29;;;;;;;5.50;4.80;;;4.10;75.40;;;2.35;75.05;98147.69;5040525;28;20504;-73
2022/04/10 05:28:56;;;;;;;4.80;4.07;;;4.40;74.70;;;2.45;72.93;98155.59;5036201;28;20469;-73
2022/04/10 05:31:24;;;;;;;7.90;4.70;;;4.40;73.40;;;2.61;73.28;98154.81;5051785;28;20546;-73
2022/04/10 05:33:51;;;;;;;5.77;4.27;;;4.50;73.00;;;2.94;71.77;98162.94;5051152;28;20553;-75
2022/04/10 05:36:18;;;;;;;4.77;4.20;;;4.90;72.00;;;2.43;72.60;98162.91;5033945;28;20503;-74
2022/04/10 05:38:46;;;;;;;11.40;4.23;;;4.50;71.60;;;1.65;75.58;98168.09;5036525;28;20462;-73
2022/04/10 05:41:15;;;;;;;5.67;4.50;;;3.70;73.00;;;1.22;77.72;98174.09;5040384;28;20488;-73
2022/04/10 05:43:42;;;;;;;5.60;4.20;;;3.10;74.90;;;0.82;79.22;98180.66;5035406;28;20485;-72
2022/04/10 05:46:09;;;;;;;7.70;5.20;;;2.60;76.70;;;0.71;80.23;98181.69;5039504;28;20822;-71
2022/04/10 05:48:36;;;;;;;7.43;4.57;;;2.40;79.00;;;0.61;80.84;98175.56;5047287;28;20492;-71
2022/04/10 05:51:03;;;;;;;6.73;4.80;;;2.30;80.10;;;0.54;81.19;98175.31;5051684;28;20480;-72
2022/04/10 05:53:30;;;;;;;7.23;5.03;;;2.20;80.50;;;0.61;80.70;98195.03;5036192;28;20516;-70
2022/04/10 05:55:56;;;;;;;8.40;4.80;;;2.20;80.30;;;0.80;80.75;98198.56;5036810;28;20545;-73
2022/04/10 05:58:25;;;;;;;17.03;5.30;;;2.30;80.60;;;0.53;80.58;98169.19;5035744;28;20559;-74
2022/04/10 06:00:52;;;;;;;6.17;4.47;;;2.30;79.80;;;0.79;80.44;98203.06;5038940;28;20456;-73
2022/04/10 06:03:20;;;;;;;7.97;4.20;;;2.30;79.80;;;0.73;80.35;98202.81;5041923;28;20467;-71
2022/04/10 06:05:47;;;;;;;5.50;4.70;;;2.30;79.30;;;0.87;79.37;98206.81;5051597;28;20469;-70
2022/04/10 06:08:14;;;;;;;7.00;4.43;;;2.40;79.40;;;1.21;78.40;98214.97;5039122;28;21045;-70
2022/04/10 06:10:41;;;;;;;6.73;4.40;;;2.70;78.50;;;1.46;77.33;98217.88;5036143;28;20560;-72
2022/04/10 06:13:10;;;;;;;8.33;4.57;;;3.00;77.70;;;1.70;76.08;98221.78;5041648;28;20464;-72
2022/04/10 06:15:38;;;;;;;6.47;4.30;;;3.20;76.40;;;1.88;74.79;98221.72;5039780;28;20534;-71
2022/04/10 06:18:07;;;;;;;5.60;4.17;;;3.40;75.40;;;1.48;74.83;98175.97;5042544;28;20462;-70
2022/04/10 06:20:34;;;;;;;11.87;4.13;;;3.40;74.80;;;1.64;74.66;98233.88;5033704;28;20454;-71
2022/04/10 06:23:01;;;;;;;5.03;4.23;;;3.30;74.60;;;1.47;75.48;98229.38;5039331;28;20519;-72
2022/04/10 06:25:28;;;;;;;4.67;4.20;;;3.10;74.90;;;1.33;75.38;98226.25;5035003;28;21059;-70
2022/04/10 06:27:56;;;;;;;5.90;4.20;;;3.00;74.70;;;1.29;76.41;98232.88;5040335;28;20891;-71
2022/04/10 06:30:23;;;;;;;7.40;4.20;;;2.90;75.30;;;1.38;76.34;98245.28;5036555;28;20472;-72
2022/04/10 06:32:52;;;;;;;5.90;4.80;;;2.90;75.70;;;1.36;75.93;98239.25;5041643;28;20883;-70
2022/04/10 06:35:19;;;;;;;7.30;4.17;;;3.00;75.30;;;1.48;74.43;98247.03;5037700;28;20555;-71
2022/04/10 06:37:46;;;;;;;5.13;4.40;;;3.00;74.60;;;1.71;74.27;98242.09;5054087;28;20461;-72
2022/04/10 06:40:13;;;;;;;4.73;3.60;;;3.20;74.70;;;1.83;73.84;98242.69;5036193;28;20497;-71
2022/04/10 06:42:41;;;;;;;7.70;4.20;;;3.40;74.30;;;1.86;73.97;98247.69;5052391;28;20548;-77
2022/04/10 06:45:09;;;;;;;5.10;4.00;;;3.40;74.40;;;1.89;73.10;98244.72;5043764;28;20476;-76
2022/04/10 06:47:36;;;;;;;6.63;4.10;;;3.40;73.50;;;2.08;73.40;98248.22;5046944;28;20457;-79
2022/04/10 06:50:06;;;;;;;7.47;4.80;;;3.60;74.00;;;2.22;72.26;98249.47;5042869;28;20502;-76
2022/04/10 06:52:35;;;;;;;7.13;5.20;;;3.70;73.10;;;2.13;72.20;98245.91;5045499;28;21044;-77
2022/04/10 06:55:02;;;;;;;3.90;3.50;;;3.70;72.90;;;2.33;71.70;98241.22;5039068;28;20457;-77
2022/04/10 06:57:29;;;;;;;5.07;3.77;;;3.80;72.70;;;2.60;70.01;98254.53;5041721;28;20965;-74
2022/04/10 06:59:56;;;;;;;5.50;2.67;;;4.00;71.60;;;2.83;67.55;98253.00;5037706;28;20453;-75
2022/04/10 07:02:23;;;;;;;7.97;3.40;;;4.30;69.90;;;2.90;67.46;98260.34;5044180;28;20486;-76
2022/04/10 07:04:50;;;;;;;5.60;2.87;;;4.40;69.10;;;2.82;67.24;98239.78;5051666;28;20552;-75
2022/04/10 07:07:19;;;;;;;3.90;2.60;;;4.40;68.50;;;2.73;66.06;98252.28;5047556;28;20464;-75
2022/04/10 07:09:46;;;;;;;6.50;3.20;;;4.40;67.10;;;2.74;65.14;98259.28;5038891;28;20583;-75
2022/04/10 07:12:13;;;;;;;3.00;2.30;;;4.30;66.30;;;2.92;65.32;98258.34;5042247;28;20972;-74
2022/04/10 07:14:40;;;;;;;4.73;2.50;;;4.40;66.50;;;3.05;65.07;98260.59;5039770;28;20476;-74
2022/04/10 07:17:08;;;;;;;6.53;2.93;;;4.50;66.40;;;3.05;64.65;98245.38;5043274;28;20466;-76
2022/04/10 07:19:35;;;;;;;5.63;2.47;;;4.60;65.80;;;2.73;64.18;98209.56;5046785;28;21009;-75
2022/04/10 07:24:50;;;;;;;4.13;2.83;;;4.60;64.60;;;3.40;63.15;98259.50;5044348;28;20486;-76
2022/04/10 07:27:17;;;;;;;5.50;2.70;;;4.80;64.70;;;3.72;62.72;98250.91;5041368;28;20465;-75
2022/04/10 07:29:44;;;;;;;5.40;2.53;;;5.20;64.60;;;3.80;61.54;98253.56;5042020;28;20464;-76
2022/04/10 07:32:11;;;;;;;5.17;2.80;;;5.30;63.50;;;4.04;60.61;98259.94;5027824;28;20569;-76
2022/04/10 07:34:38;;;;;;;5.00;3.20;;;5.50;62.30;;;4.04;59.34;98263.41;5041594;28;20544;-74
2022/04/10 07:37:06;;;;;;;3.83;3.27;;;5.50;61.30;;;4.01;60.16;98270.94;5043201;28;20453;-77
2022/04/10 07:39:33;;;;;;;3.87;2.67;;;5.40;61.60;;;4.03;61.35;98271.63;5045443;28;20449;-80
2022/04/10 07:42:01;;;;;;;3.63;2.43;;;5.50;61.90;;;3.95;58.59;98262.59;5043135;28;20461;-77
2022/04/10 07:44:28;;;;;;;7.00;2.60;;;5.40;60.00;;;4.01;60.87;98269.09;5058650;28;20455;-76
2022/04/10 07:49:41;;;;;;;5.03;3.10;;;5.50;61.00;;;4.14;60.40;98270.44;5041388;28;20452;-79
2022/04/10 07:52:08;;;;;;;4.63;3.50;;;5.60;60.80;;;4.08;60.48;98279.97;5040781;28;20458;-78
2022/04/10 07:54:35;;;;;;;8.20;3.90;;;5.60;60.60;;;4.08;59.57;98250.56;5049364;28;20972;-77
2022/04/10 07:57:04;;;;;;;3.93;2.83;;;5.70;60.40;;;4.27;59.18;98270.78;5044125;28;20501;-77
2022/04/10 07:59:31;;;;;;;4.70;3.27;;;5.80;60.40;;;3.93;59.80;98272.63;5053727;28;20459;-80
2022/04/10 08:02:01;;;;;;;4.43;3.03;;;5.60;59.80;;;3.91;59.53;98281.78;5049826;28;21198;-76
2022/04/10 08:04:28;;;;;;;6.67;3.73;;;5.40;59.60;;;3.96;59.36;98276.81;5039460;28;20450;-75
2022/04/10 08:06:56;;;;;;;4.93;2.90;;;5.40;59.70;;;4.12;59.96;98278.63;5058866;28;21007;-76
2022/04/10 08:09:23;;;;;;;4.43;2.90;;;5.50;59.80;;;4.44;59.20;98282.28;5043005;28;20438;-76
2022/04/10 08:11:50;;;;;;;4.37;2.20;;;5.80;60.20;;;4.46;54.35;98285.59;5040381;28;20490;-74
2022/04/10 08:14:19;;;;;;;3.93;2.70;;;5.90;55.70;;;4.65;54.97;98299.66;5043303;28;20468;-76
2022/04/10 08:16:46;;;;;;;2.70;2.47;;;6.00;55.60;;;4.95;54.69;98291.88;5041122;28;21432;-75
2022/04/10 08:19:13;;;;;;;3.73;2.40;;;6.30;56.30;;;5.18;53.71;98293.78;5048801;28;20631;-74
2022/04/10 08:21:41;;;;;;;2.80;2.60;;;6.50;55.10;;;4.70;53.51;98227.69;5047644;28;20457;-75
2022/04/10 08:24:09;;;;;;;2.50;2.30;;;6.50;55.00;;;5.32;52.41;98301.09;5039107;28;20462;-75
2022/04/10 08:26:37;;;;;;;5.00;2.67;;;6.70;54.20;;;5.14;52.79;98304.00;5042003;28;20492;-80
2022/04/10 08:29:05;;;;;;;4.37;2.33;;;6.60;53.90;;;5.15;53.06;98308.34;5043011;28;20954;-75
2022/04/10 08:31:33;;;;;;;5.40;3.07;;;6.50;54.20;;;5.38;52.81;98288.84;5037325;28;20455;-74
2022/04/10 08:34:01;;;;;;;9.40;2.90;;;6.90;54.50;;;5.19;53.85;98298.13;5042286;28;21045;-74
2022/04/10 08:36:28;;;;;;;6.07;2.67;;;6.70;54.70;;;5.02;54.44;98308.91;5040971;28;20529;-75
2022/04/10 08:38:57;;;;;;;5.23;2.93;;;6.50;54.50;;;4.96;53.38;98301.56;5037532;28;20517;-75
2022/04/10 08:41:31;;;;;;;6.67;2.83;;;6.50;54.20;;;5.22;54.17;98308.50;5047166;28;20467;-74
2022/04/10 08:44:01;;;;;;;4.53;2.53;;;6.60;54.60;;;5.05;53.88;98316.59;5047744;28;21159;-75
2022/04/10 08:46:30;;;;;;;6.43;2.60;;;6.50;54.30;;;5.15;53.99;98318.25;5042140;28;20586;-75
2022/04/10 08:49:00;;;;;;;5.67;2.63;;;6.50;54.20;;;5.24;53.92;98318.03;5052444;28;20517;-75
2022/04/10 08:51:30;;;;;;;3.30;2.57;;;6.70;54.40;;;5.44;53.37;98309.56;5041566;28;20460;-76
2022/04/10 08:53:59;;;;;;;5.40;2.43;;;6.80;54.60;;;5.72;52.24;98319.00;5045105;28;20447;-75
2022/04/10 08:56:26;;;;;;;6.43;2.73;;;7.10;53.80;;;5.81;51.34;98317.91;5045674;28;20480;-74
2022/04/10 08:58:54;;;;;;;2.50;1.77;;;7.20;53.00;;;5.42;51.97;98316.94;5056593;28;20472;-75
2022/04/10 09:01:22;;;;;;;3.63;2.40;;;7.00;52.60;;;5.28;52.18;98321.22;5043327;28;20466;-76
2022/04/10 09:03:49;;;;;;;4.23;2.63;;;6.70;52.80;;;5.09;54.39;98325.97;5045482;28;20987;-75
2022/04/10 09:06:18;;;;;;;2.83;2.50;;;6.60;53.80;;;4.96;55.19;98336.38;5039762;28;20593;-76
2022/04/10 09:08:45;;;;;;;5.53;2.70;;;6.40;54.30;;;5.19;54.53;98341.00;5045385;28;20457;-75
2022/04/10 09:11:13;;;;;;;3.47;2.20;;;6.60;54.50;;;5.42;52.73;98333.03;5038840;28;20995;-76
2022/04/10 09:13:46;;;;;;;4.33;2.10;;;6.80;53.50;;;5.74;51.86;98325.81;5041911;28;20951;-78
2022/04/10 09:16:16;;;;;;;4.97;2.60;;;7.00;52.90;;;6.03;49.35;98313.59;5041309;28;20457;-75
2022/04/10 09:18:55;;;;;;;3.37;2.13;;;7.40;51.40;;;5.91;50.25;98321.22;5043563;28;20567;-74
2022/04/10 09:21:33;;;;;;;3.50;2.70;;;7.40;51.60;;;5.75;51.68;98337.41;5042817;28;20457;-73
2022/04/10 09:24:03;;;;;;;5.43;1.97;;;7.10;52.50;;;5.82;49.66;98327.63;5040146;28;20469;-75
2022/04/10 09:26:45;;;;;;;3.23;1.90;;;7.20;50.70;;;5.49;51.10;98301.84;5033220;28;20485;-72
2022/04/10 09:29:13;;;;;;;6.37;2.87;;;7.10;51.50;;;5.38;52.14;98324.53;5037287;28;20540;-75
2022/04/10 09:31:40;;;;;;;4.27;2.30;;;6.80;52.40;;;5.46;51.46;98328.16;5037490;28;20469;-73
2022/04/10 09:34:09;;;;;;;4.87;2.37;;;6.80;52.20;;;5.34;52.92;98328.53;5044257;28;20469;-74
2022/04/10 09:36:43;;;;;;;2.40;1.70;;;6.70;52.40;;;5.32;51.27;98325.22;5044473;28;20468;-72
2022/04/10 09:39:12;;;;;;;3.07;2.20;;;6.70;51.60;;;5.84;49.54;98336.34;5040510;28;20460;-74
2022/04/10 09:41:41;;;;;;;1.90;1.80;;;7.10;51.00;;;5.94;50.12;98323.53;5056219;28;20472;-77
2022/04/10 09:44:13;;;;;;;3.60;2.07;;;7.30;51.00;;;5.90;48.53;98281.16;5044352;28;20460;-75
2022/04/10 09:46:42;;;;;;;6.30;2.20;;;7.50;50.70;;;6.05;48.44;98326.84;5046330;28;20468;-73
2022/04/10 09:49:20;;;;;;;3.40;1.70;;;7.50;49.80;;;6.42;47.40;98321.69;5068121;28;20449;-75
2022/04/10 09:52:08;;;;;;;3.50;2.10;;;7.70;49.60;;;6.47;46.97;98317.47;5045354;28;20470;-75
2022/04/10 09:54:38;;;;;;;2.33;1.83;;;7.80;49.30;;;7.05;46.61;98321.41;5030155;28;20479;-75
2022/04/10 09:57:11;;;;;;;3.47;2.03;;;8.30;49.40;;;6.70;45.43;98307.69;5046835;28;20451;-74
2022/04/10 09:59:43;;;;;;;2.47;1.60;;;8.20;48.00;;;7.10;45.80;98319.00;5044639;28;20446;-76
2022/04/10 10:02:12;;;;;;;3.07;1.53;;;8.30;48.50;;;7.34;45.55;98320.53;5049930;28;20497;-71
2022/04/10 10:04:41;;;;;;;3.50;1.70;;;8.50;48.20;;;6.49;45.85;98317.25;5039504;28;20676;-72
2022/04/10 10:07:12;;;;;;;3.53;1.50;;;8.00;47.60;;;6.33;46.84;98312.88;5045843;28;20583;-74
2022/04/10 10:09:40;;;;;;;2.47;2.00;;;7.70;48.20;;;6.14;48.28;98312.38;5036199;28;20460;-75
2022/04/10 10:12:09;;;;;;;6.57;2.20;;;7.60;48.60;;;6.08;48.54;98321.13;5055120;28;20563;-74
2022/04/10 10:14:38;;;;;;;2.90;2.03;;;7.50;49.00;;;5.78;49.66;98326.31;5044746;28;20461;-72
2022/04/10 10:17:07;;;;;;;4.60;2.10;;;7.30;49.50;;;5.69;50.63;98314.81;5041328;28;20546;-74
2022/04/10 10:19:38;;;;;;;2.20;2.00;;;7.10;49.90;;;5.69;51.38;98317.50;5038374;28;20954;-73
2022/04/10 10:22:07;;;;;;;3.30;1.80;;;7.00;50.50;;;6.06;49.73;98323.97;5048855;28;20936;-71
2022/04/10 10:24:48;;;;;;;2.40;1.77;;;7.30;50.50;;;6.10;47.70;98319.09;5045464;28;20457;-78
2022/04/10 10:27:42;;;;;;;2.33;2.13;;;7.40;48.70;;;6.48;46.87;98321.81;5033954;28;20479;-76
2022/04/10 10:30:20;;;;;;;3.63;2.00;;;7.70;48.50;;;6.78;46.37;98295.00;5043887;28;20550;-77
2022/04/10 10:32:50;;;;;;;2.40;1.30;;;8.10;48.40;;;6.52;45.34;98315.06;5066965;28;20520;-76
2022/04/10 10:35:32;;;;;;;2.50;1.83;;;7.90;47.00;;;6.58;46.27;98315.34;5051475;28;21000;-79
2022/04/10 10:38:01;;;;;;;3.77;1.77;;;7.90;47.50;;;6.60;46.95;98311.47;5047796;28;20868;-76
2022/04/10 10:40:31;;;;;;;8.00;2.40;;;7.90;48.00;;;6.69;47.09;98308.72;5042940;28;20463;-71